sensor_id;sensor_type;location;lat;lon;timestamp;temperature;humidity
40151;DHT22;25866;52.420;10.640;2024-02-16T00:01:20;10.40;99.90
40151;DHT22;25866;52.420;10.640;2024-02-16T00:03:46;10.40;99.90
40151;DHT22;25866;52.420;10.640;2024-02-16T00:06:12;10.40;99.90
40151;DHT22;25866;52.420;10.640;2024-02-16T00:08:38;10.40;99.90
40151;DHT22;25866;52.420;10.640;2024-02-16T00:11:05;10.40;99.90
40151;DHT22;25866;52.420;10.640;2024-02-16T00:13:31;10.40;99.90
40151;DHT22;25866;52.420;10.640;2024-02-16T00:15:57;10.40;99.90
40151;DHT22;25866;52.420;10.640;2024-02-16T00:18:23;10.40;99.90
40151;DHT22;25866;52.420;10.640;2024-02-16T00:20:49;10.40;99.90
40151;DHT22;25866;52.420;10.640;2024-02-16T00:23:15;10.40;99.90
40151;DHT22;25866;52.420;10.640;2024-02-16T00:25:41;10.40;99.90
40151;DHT22;25866;52.420;10.640;2024-02-16T00:28:08;10.40;99.90
40151;DHT22;25866;52.420;10.640;2024-02-16T00:30:34;10.40;99.90
40151;DHT22;25866;52.420;10.640;2024-02-16T00:33:00;10.30;99.90
40151;DHT22;25866;52.420;10.640;2024-02-16T00:35:26;10.30;99.90
40151;DHT22;25866;52.420;10.640;2024-02-16T00:37:52;10.40;99.90
40151;DHT22;25866;52.420;10.640;2024-02-16T00:40:18;10.40;99.90
40151;DHT22;25866;52.420;10.640;2024-02-16T00:42:44;10.40;99.90
40151;DHT22;25866;52.420;10.640;2024-02-16T00:45:09;10.40;99.90
40151;DHT22;25866;52.420;10.640;2024-02-16T00:47:35;10.40;99.90
40151;DHT22;25866;52.420;10.640;2024-02-16T00:50:01;10.40;99.90
40151;DHT22;25866;52.420;10.640;2024-02-16T00:52:29;10.40;99.90
40151;DHT22;25866;52.420;10.640;2024-02-16T00:54:55;10.40;99.90
40151;DHT22;25866;52.420;10.640;2024-02-16T00:57:20;10.50;99.90
40151;DHT22;25866;52.420;10.640;2024-02-16T00:59:46;10.50;99.90
40151;DHT22;25866;52.420;10.640;2024-02-16T01:02:13;10.50;99.90
40151;DHT22;25866;52.420;10.640;2024-02-16T01:04:38;10.50;99.90
40151;DHT22;25866;52.420;10.640;2024-02-16T01:07:04;10.50;99.90
40151;DHT22;25866;52.420;10.640;2024-02-16T01:09:30;10.50;99.90
40151;DHT22;25866;52.420;10.640;2024-02-16T01:11:57;10.50;99.90
40151;DHT22;25866;52.420;10.640;2024-02-16T01:14:23;10.50;99.90
40151;DHT22;25866;52.420;10.640;2024-02-16T01:16:48;10.40;99.90
40151;DHT22;25866;52.420;10.640;2024-02-16T01:19:14;10.40;99.90
40151;DHT22;25866;52.420;10.640;2024-02-16T01:21:40;10.40;99.90
40151;DHT22;25866;52.420;10.640;2024-02-16T01:24:06;10.40;99.90
40151;DHT22;25866;52.420;10.640;2024-02-16T01:26:32;10.40;99.90
40151;DHT22;25866;52.420;10.640;2024-02-16T01:28:59;10.40;99.90
40151;DHT22;25866;52.420;10.640;2024-02-16T01:31:25;10.40;99.90
40151;DHT22;25866;52.420;10.640;2024-02-16T01:33:51;10.40;99.90
40151;DHT22;25866;52.420;10.640;2024-02-16T01:36:19;10.40;99.90
40151;DHT22;25866;52.420;10.640;2024-02-16T01:38:44;10.40;99.90
40151;DHT22;25866;52.420;10.640;2024-02-16T01:41:10;10.30;99.90
40151;DHT22;25866;52.420;10.640;2024-02-16T01:43:36;10.30;99.90
40151;DHT22;25866;52.420;10.640;2024-02-16T01:46:02;10.30;99.90
40151;DHT22;25866;52.420;10.640;2024-02-16T01:48:28;10.30;99.90
40151;DHT22;25866;52.420;10.640;2024-02-16T01:50:55;10.20;99.90
40151;DHT22;25866;52.420;10.640;2024-02-16T01:53:21;10.20;99.90
40151;DHT22;25866;52.420;10.640;2024-02-16T01:55:48;10.20;99.90
40151;DHT22;25866;52.420;10.640;2024-02-16T01:58:14;10.20;99.90
40151;DHT22;25866;52.420;10.640;2024-02-16T02:00:40;10.20;99.90
40151;DHT22;25866;52.420;10.640;2024-02-16T02:03:10;10.10;99.90
40151;DHT22;25866;52.420;10.640;2024-02-16T02:05:44;10.10;99.90
40151;DHT22;25866;52.420;10.640;2024-02-16T02:08:13;10.10;99.90
40151;DHT22;25866;52.420;10.640;2024-02-16T02:10:39;10.10;99.90
40151;DHT22;25866;52.420;10.640;2024-02-16T02:13:05;10.10;99.90
40151;DHT22;25866;52.420;10.640;2024-02-16T02:15:31;10.00;99.90
40151;DHT22;25866;52.420;10.640;2024-02-16T02:17:58;10.00;99.90
40151;DHT22;25866;52.420;10.640;2024-02-16T02:20:25;10.00;99.90
40151;DHT22;25866;52.420;10.640;2024-02-16T02:22:50;10.00;99.90
40151;DHT22;25866;52.420;10.640;2024-02-16T02:25:16;9.90;99.90
40151;DHT22;25866;52.420;10.640;2024-02-16T02:27:42;9.90;99.90
40151;DHT22;25866;52.420;10.640;2024-02-16T02:30:08;9.90;99.90
40151;DHT22;25866;52.420;10.640;2024-02-16T02:32:34;9.90;99.90
40151;DHT22;25866;52.420;10.640;2024-02-16T02:35:02;9.90;99.90
40151;DHT22;25866;52.420;10.640;2024-02-16T02:37:29;9.90;99.90
40151;DHT22;25866;52.420;10.640;2024-02-16T02:39:55;9.90;99.90
40151;DHT22;25866;52.420;10.640;2024-02-16T02:42:22;9.80;99.90
40151;DHT22;25866;52.420;10.640;2024-02-16T02:44:48;9.90;99.90
40151;DHT22;25866;52.420;10.640;2024-02-16T02:47:16;9.80;99.90
40151;DHT22;25866;52.420;10.640;2024-02-16T02:49:43;9.90;99.90
40151;DHT22;25866;52.420;10.640;2024-02-16T02:52:09;9.80;99.90
40151;DHT22;25866;52.420;10.640;2024-02-16T02:54:35;9.80;99.90
40151;DHT22;25866;52.420;10.640;2024-02-16T02:57:02;9.80;99.90
40151;DHT22;25866;52.420;10.640;2024-02-16T02:59:27;9.80;99.90
40151;DHT22;25866;52.420;10.640;2024-02-16T03:01:53;9.80;99.90
40151;DHT22;25866;52.420;10.640;2024-02-16T03:04:19;9.80;99.90
40151;DHT22;25866;52.420;10.640;2024-02-16T03:06:45;9.70;99.90
40151;DHT22;25866;52.420;10.640;2024-02-16T03:09:11;9.70;99.90
40151;DHT22;25866;52.420;10.640;2024-02-16T03:11:38;9.60;99.90
40151;DHT22;25866;52.420;10.640;2024-02-16T03:14:05;9.60;99.90
40151;DHT22;25866;52.420;10.640;2024-02-16T03:16:31;9.60;99.90
40151;DHT22;25866;52.420;10.640;2024-02-16T03:18:57;9.60;99.90
40151;DHT22;25866;52.420;10.640;2024-02-16T03:21:23;9.50;99.90
40151;DHT22;25866;52.420;10.640;2024-02-16T03:26:24;9.50;99.90
40151;DHT22;25866;52.420;10.640;2024-02-16T03:28:50;9.50;99.90
40151;DHT22;25866;52.420;10.640;2024-02-16T03:31:20;9.40;99.90
40151;DHT22;25866;52.420;10.640;2024-02-16T03:33:47;9.40;99.90
40151;DHT22;25866;52.420;10.640;2024-02-16T03:36:13;9.40;99.90
40151;DHT22;25866;52.420;10.640;2024-02-16T03:38:44;9.30;99.90
40151;DHT22;25866;52.420;10.640;2024-02-16T03:41:21;9.30;99.90
40151;DHT22;25866;52.420;10.640;2024-02-16T03:43:47;9.30;99.90
40151;DHT22;25866;52.420;10.640;2024-02-16T03:46:13;9.30;99.90
40151;DHT22;25866;52.420;10.640;2024-02-16T03:48:39;9.20;99.90
40151;DHT22;25866;52.420;10.640;2024-02-16T03:51:07;9.30;99.90
40151;DHT22;25866;52.420;10.640;2024-02-16T03:53:33;9.20;99.90
40151;DHT22;25866;52.420;10.640;2024-02-16T03:55:59;9.20;99.90
40151;DHT22;25866;52.420;10.640;2024-02-16T03:58:25;9.20;99.90
40151;DHT22;25866;52.420;10.640;2024-02-16T04:00:52;9.20;99.90
40151;DHT22;25866;52.420;10.640;2024-02-16T04:03:20;9.10;99.90
40151;DHT22;25866;52.420;10.640;2024-02-16T04:05:46;9.10;99.90
40151;DHT22;25866;52.420;10.640;2024-02-16T04:08:12;9.10;99.90
40151;DHT22;25866;52.420;10.640;2024-02-16T04:10:38;9.10;99.90
40151;DHT22;25866;52.420;10.640;2024-02-16T04:13:04;9.10;99.90
40151;DHT22;25866;52.420;10.640;2024-02-16T04:15:29;9.10;99.90
40151;DHT22;25866;52.420;10.640;2024-02-16T04:17:55;9.10;99.90
40151;DHT22;25866;52.420;10.640;2024-02-16T04:20:21;9.10;99.90
40151;DHT22;25866;52.420;10.640;2024-02-16T04:22:47;9.10;99.90
40151;DHT22;25866;52.420;10.640;2024-02-16T04:25:13;9.10;99.90
40151;DHT22;25866;52.420;10.640;2024-02-16T04:27:39;9.10;99.90
40151;DHT22;25866;52.420;10.640;2024-02-16T04:30:05;9.10;99.90
40151;DHT22;25866;52.420;10.640;2024-02-16T04:32:32;9.00;99.90
40151;DHT22;25866;52.420;10.640;2024-02-16T04:34:58;9.10;99.90
40151;DHT22;25866;52.420;10.640;2024-02-16T04:37:25;9.00;99.90
40151;DHT22;25866;52.420;10.640;2024-02-16T04:39:51;9.00;99.90
40151;DHT22;25866;52.420;10.640;2024-02-16T04:42:17;9.00;99.90
40151;DHT22;25866;52.420;10.640;2024-02-16T04:44:43;9.00;99.90
40151;DHT22;25866;52.420;10.640;2024-02-16T04:47:10;8.90;99.90
40151;DHT22;25866;52.420;10.640;2024-02-16T04:49:37;8.80;99.90
40151;DHT22;25866;52.420;10.640;2024-02-16T04:52:03;8.80;99.90
40151;DHT22;25866;52.420;10.640;2024-02-16T04:54:29;8.90;99.90
40151;DHT22;25866;52.420;10.640;2024-02-16T04:56:55;8.90;99.90
40151;DHT22;25866;52.420;10.640;2024-02-16T04:59:21;9.00;99.90
40151;DHT22;25866;52.420;10.640;2024-02-16T05:01:48;9.10;99.90
40151;DHT22;25866;52.420;10.640;2024-02-16T05:04:14;9.10;99.90
40151;DHT22;25866;52.420;10.640;2024-02-16T05:06:46;9.00;99.90
40151;DHT22;25866;52.420;10.640;2024-02-16T05:09:12;9.00;99.90
40151;DHT22;25866;52.420;10.640;2024-02-16T05:11:45;9.00;99.90
40151;DHT22;25866;52.420;10.640;2024-02-16T05:14:11;9.00;99.90
40151;DHT22;25866;52.420;10.640;2024-02-16T05:16:46;9.00;99.90
40151;DHT22;25866;52.420;10.640;2024-02-16T05:19:13;9.00;99.90
40151;DHT22;25866;52.420;10.640;2024-02-16T05:21:39;9.10;99.90
40151;DHT22;25866;52.420;10.640;2024-02-16T05:24:05;9.00;99.90
40151;DHT22;25866;52.420;10.640;2024-02-16T05:26:30;9.10;99.90
40151;DHT22;25866;52.420;10.640;2024-02-16T05:28:56;9.00;99.90
40151;DHT22;25866;52.420;10.640;2024-02-16T05:31:23;8.90;99.90
40151;DHT22;25866;52.420;10.640;2024-02-16T05:33:50;8.90;99.90
40151;DHT22;25866;52.420;10.640;2024-02-16T05:36:20;8.80;99.90
40151;DHT22;25866;52.420;10.640;2024-02-16T05:38:47;8.80;99.90
40151;DHT22;25866;52.420;10.640;2024-02-16T05:41:13;8.80;99.90
40151;DHT22;25866;52.420;10.640;2024-02-16T05:43:39;8.80;99.90
40151;DHT22;25866;52.420;10.640;2024-02-16T05:46:05;8.90;99.90
40151;DHT22;25866;52.420;10.640;2024-02-16T05:48:34;8.90;99.90
40151;DHT22;25866;52.420;10.640;2024-02-16T05:51:03;8.90;99.90
40151;DHT22;25866;52.420;10.640;2024-02-16T05:53:31;8.90;99.90
40151;DHT22;25866;52.420;10.640;2024-02-16T05:55:58;9.00;99.90
40151;DHT22;25866;52.420;10.640;2024-02-16T05:58:24;9.00;99.90
40151;DHT22;25866;52.420;10.640;2024-02-16T06:00:50;9.00;99.90
40151;DHT22;25866;52.420;10.640;2024-02-16T06:03:16;9.00;99.90
40151;DHT22;25866;52.420;10.640;2024-02-16T06:05:42;9.10;99.90
40151;DHT22;25866;52.420;10.640;2024-02-16T06:08:13;9.00;99.90
40151;DHT22;25866;52.420;10.640;2024-02-16T06:10:41;9.00;99.90
40151;DHT22;25866;52.420;10.640;2024-02-16T06:13:07;9.00;99.90
40151;DHT22;25866;52.420;10.640;2024-02-16T06:15:33;8.90;99.90
40151;DHT22;25866;52.420;10.640;2024-02-16T06:18:02;8.90;99.90
40151;DHT22;25866;52.420;10.640;2024-02-16T06:20:28;8.90;99.90
40151;DHT22;25866;52.420;10.640;2024-02-16T06:22:54;8.90;99.90
40151;DHT22;25866;52.420;10.640;2024-02-16T06:25:19;8.80;99.90
40151;DHT22;25866;52.420;10.640;2024-02-16T06:27:45;8.80;99.90
40151;DHT22;25866;52.420;10.640;2024-02-16T06:30:12;8.90;99.90
40151;DHT22;25866;52.420;10.640;2024-02-16T06:32:41;8.90;99.90
40151;DHT22;25866;52.420;10.640;2024-02-16T06:35:08;9.00;99.90
40151;DHT22;25866;52.420;10.640;2024-02-16T06:37:34;8.90;99.90
40151;DHT22;25866;52.420;10.640;2024-02-16T06:40:00;9.00;99.90
40151;DHT22;25866;52.420;10.640;2024-02-16T06:42:27;8.90;99.90
40151;DHT22;25866;52.420;10.640;2024-02-16T06:44:53;8.90;99.90
40151;DHT22;25866;52.420;10.640;2024-02-16T06:47:19;8.80;99.90
40151;DHT22;25866;52.420;10.640;2024-02-16T06:49:46;8.90;99.90
40151;DHT22;25866;52.420;10.640;2024-02-16T06:52:12;8.90;99.90
40151;DHT22;25866;52.420;10.640;2024-02-16T06:54:38;8.90;99.90
40151;DHT22;25866;52.420;10.640;2024-02-16T06:57:03;8.90;99.90
40151;DHT22;25866;52.420;10.640;2024-02-16T06:59:30;8.90;99.90
40151;DHT22;25866;52.420;10.640;2024-02-16T07:01:56;8.90;99.90
40151;DHT22;25866;52.420;10.640;2024-02-16T07:04:22;8.90;99.90
40151;DHT22;25866;52.420;10.640;2024-02-16T07:06:48;8.90;99.90
40151;DHT22;25866;52.420;10.640;2024-02-16T07:09:13;8.90;99.90
40151;DHT22;25866;52.420;10.640;2024-02-16T07:11:41;8.90;99.90
40151;DHT22;25866;52.420;10.640;2024-02-16T07:14:08;8.90;99.90
40151;DHT22;25866;52.420;10.640;2024-02-16T07:16:34;8.90;99.90
40151;DHT22;25866;52.420;10.640;2024-02-16T07:19:00;8.90;99.90
40151;DHT22;25866;52.420;10.640;2024-02-16T07:21:26;9.00;99.90
40151;DHT22;25866;52.420;10.640;2024-02-16T07:23:52;9.00;99.90
40151;DHT22;25866;52.420;10.640;2024-02-16T07:26:18;9.00;99.90
40151;DHT22;25866;52.420;10.640;2024-02-16T07:28:44;9.20;99.90
40151;DHT22;25866;52.420;10.640;2024-02-16T07:31:10;9.30;99.90
40151;DHT22;25866;52.420;10.640;2024-02-16T07:33:36;9.50;99.90
40151;DHT22;25866;52.420;10.640;2024-02-16T07:36:03;9.60;99.90
40151;DHT22;25866;52.420;10.640;2024-02-16T07:38:29;9.70;99.90
40151;DHT22;25866;52.420;10.640;2024-02-16T07:40:55;9.80;99.90
40151;DHT22;25866;52.420;10.640;2024-02-16T07:43:21;9.90;99.90
40151;DHT22;25866;52.420;10.640;2024-02-16T07:45:50;9.90;99.90
40151;DHT22;25866;52.420;10.640;2024-02-16T07:48:15;9.90;99.90
40151;DHT22;25866;52.420;10.640;2024-02-16T07:50:41;9.90;99.90
40151;DHT22;25866;52.420;10.640;2024-02-16T07:53:07;9.80;99.90
40151;DHT22;25866;52.420;10.640;2024-02-16T07:55:35;9.80;99.90
40151;DHT22;25866;52.420;10.640;2024-02-16T07:58:01;9.70;99.90
40151;DHT22;25866;52.420;10.640;2024-02-16T08:00:27;9.70;99.90
40151;DHT22;25866;52.420;10.640;2024-02-16T08:02:54;9.80;99.90
40151;DHT22;25866;52.420;10.640;2024-02-16T08:05:19;9.90;99.90
40151;DHT22;25866;52.420;10.640;2024-02-16T08:07:46;10.00;99.90
40151;DHT22;25866;52.420;10.640;2024-02-16T08:10:12;10.10;99.90
40151;DHT22;25866;52.420;10.640;2024-02-16T08:12:38;10.10;99.90
40151;DHT22;25866;52.420;10.640;2024-02-16T08:15:05;10.20;99.90
40151;DHT22;25866;52.420;10.640;2024-02-16T08:17:33;10.30;99.90
40151;DHT22;25866;52.420;10.640;2024-02-16T08:20:00;10.40;99.90
40151;DHT22;25866;52.420;10.640;2024-02-16T08:22:25;10.40;99.90
40151;DHT22;25866;52.420;10.640;2024-02-16T08:24:51;10.50;99.90
40151;DHT22;25866;52.420;10.640;2024-02-16T08:27:17;10.60;99.90
40151;DHT22;25866;52.420;10.640;2024-02-16T08:29:43;10.70;99.90
40151;DHT22;25866;52.420;10.640;2024-02-16T08:32:10;10.80;99.90
40151;DHT22;25866;52.420;10.640;2024-02-16T08:34:36;10.90;99.90
40151;DHT22;25866;52.420;10.640;2024-02-16T08:37:06;11.00;99.90
40151;DHT22;25866;52.420;10.640;2024-02-16T08:39:33;11.10;99.90
40151;DHT22;25866;52.420;10.640;2024-02-16T08:42:00;11.10;99.90
40151;DHT22;25866;52.420;10.640;2024-02-16T08:44:26;11.20;99.90
40151;DHT22;25866;52.420;10.640;2024-02-16T08:46:52;11.20;99.90
40151;DHT22;25866;52.420;10.640;2024-02-16T08:49:20;11.30;99.90
40151;DHT22;25866;52.420;10.640;2024-02-16T08:51:47;11.30;99.90
40151;DHT22;25866;52.420;10.640;2024-02-16T08:54:13;11.30;99.90
40151;DHT22;25866;52.420;10.640;2024-02-16T08:56:38;11.40;99.90
40151;DHT22;25866;52.420;10.640;2024-02-16T08:59:05;11.40;99.90
40151;DHT22;25866;52.420;10.640;2024-02-16T09:01:32;11.50;99.90
40151;DHT22;25866;52.420;10.640;2024-02-16T09:03:58;11.50;99.90
40151;DHT22;25866;52.420;10.640;2024-02-16T09:06:24;11.60;99.90
40151;DHT22;25866;52.420;10.640;2024-02-16T09:08:51;11.70;99.90
40151;DHT22;25866;52.420;10.640;2024-02-16T09:11:17;11.80;99.90
40151;DHT22;25866;52.420;10.640;2024-02-16T09:14:05;11.90;99.90
40151;DHT22;25866;52.420;10.640;2024-02-16T09:16:30;12.10;99.90
40151;DHT22;25866;52.420;10.640;2024-02-16T09:18:58;12.20;99.90
40151;DHT22;25866;52.420;10.640;2024-02-16T09:21:24;12.40;99.90
40151;DHT22;25866;52.420;10.640;2024-02-16T09:23:52;12.50;99.90
40151;DHT22;25866;52.420;10.640;2024-02-16T09:26:18;12.60;99.90
40151;DHT22;25866;52.420;10.640;2024-02-16T09:28:45;12.70;99.90
40151;DHT22;25866;52.420;10.640;2024-02-16T09:31:14;12.70;99.90
40151;DHT22;25866;52.420;10.640;2024-02-16T09:33:40;12.70;99.90
40151;DHT22;25866;52.420;10.640;2024-02-16T09:36:06;12.70;99.90
40151;DHT22;25866;52.420;10.640;2024-02-16T09:38:32;12.70;99.90
40151;DHT22;25866;52.420;10.640;2024-02-16T09:40:58;12.70;99.90
40151;DHT22;25866;52.420;10.640;2024-02-16T09:43:29;12.70;99.90
40151;DHT22;25866;52.420;10.640;2024-02-16T09:45:59;12.70;99.90
40151;DHT22;25866;52.420;10.640;2024-02-16T09:48:28;12.80;99.90
40151;DHT22;25866;52.420;10.640;2024-02-16T09:50:55;12.80;99.90
40151;DHT22;25866;52.420;10.640;2024-02-16T09:53:24;12.90;99.90
40151;DHT22;25866;52.420;10.640;2024-02-16T09:55:50;13.00;99.90
40151;DHT22;25866;52.420;10.640;2024-02-16T09:58:19;13.00;99.90
40151;DHT22;25866;52.420;10.640;2024-02-16T10:00:54;13.10;99.90
40151;DHT22;25866;52.420;10.640;2024-02-16T10:03:25;13.10;99.90
40151;DHT22;25866;52.420;10.640;2024-02-16T10:05:52;13.20;99.90
40151;DHT22;25866;52.420;10.640;2024-02-16T10:08:19;13.20;99.90
40151;DHT22;25866;52.420;10.640;2024-02-16T10:10:45;13.40;99.90
40151;DHT22;25866;52.420;10.640;2024-02-16T10:13:10;13.50;99.90
40151;DHT22;25866;52.420;10.640;2024-02-16T10:15:37;13.70;99.90
40151;DHT22;25866;52.420;10.640;2024-02-16T10:18:06;13.80;99.90
40151;DHT22;25866;52.420;10.640;2024-02-16T10:20:35;14.00;99.90
40151;DHT22;25866;52.420;10.640;2024-02-16T10:23:05;14.10;99.90
40151;DHT22;25866;52.420;10.640;2024-02-16T10:25:30;14.30;99.90
40151;DHT22;25866;52.420;10.640;2024-02-16T10:27:57;14.40;99.90
40151;DHT22;25866;52.420;10.640;2024-02-16T10:30:30;14.50;99.90
40151;DHT22;25866;52.420;10.640;2024-02-16T10:32:59;14.50;99.90
40151;DHT22;25866;52.420;10.640;2024-02-16T10:35:25;14.50;99.90
40151;DHT22;25866;52.420;10.640;2024-02-16T10:37:55;14.50;99.90
40151;DHT22;25866;52.420;10.640;2024-02-16T10:40:23;14.50;99.90
40151;DHT22;25866;52.420;10.640;2024-02-16T10:42:50;14.40;99.90
40151;DHT22;25866;52.420;10.640;2024-02-16T10:45:17;14.30;99.90
40151;DHT22;25866;52.420;10.640;2024-02-16T10:47:44;14.20;99.90
40151;DHT22;25866;52.420;10.640;2024-02-16T10:50:11;14.20;99.90
40151;DHT22;25866;52.420;10.640;2024-02-16T10:52:39;14.20;99.90
40151;DHT22;25866;52.420;10.640;2024-02-16T10:55:07;14.10;99.90
40151;DHT22;25866;52.420;10.640;2024-02-16T10:57:36;14.20;99.90
40151;DHT22;25866;52.420;10.640;2024-02-16T11:00:10;14.20;99.90
40151;DHT22;25866;52.420;10.640;2024-02-16T11:05:19;14.20;99.90
40151;DHT22;25866;52.420;10.640;2024-02-16T11:07:47;14.20;99.90
40151;DHT22;25866;52.420;10.640;2024-02-16T11:10:13;14.30;99.90
40151;DHT22;25866;52.420;10.640;2024-02-16T11:12:44;14.40;99.90
40151;DHT22;25866;52.420;10.640;2024-02-16T11:15:11;14.50;99.90
40151;DHT22;25866;52.420;10.640;2024-02-16T11:17:38;14.60;99.90
40151;DHT22;25866;52.420;10.640;2024-02-16T11:20:07;14.60;99.90
40151;DHT22;25866;52.420;10.640;2024-02-16T11:22:37;14.60;99.90
40151;DHT22;25866;52.420;10.640;2024-02-16T11:25:05;14.70;99.90
40151;DHT22;25866;52.420;10.640;2024-02-16T11:27:31;14.80;99.90
40151;DHT22;25866;52.420;10.640;2024-02-16T11:29:59;14.80;99.90
40151;DHT22;25866;52.420;10.640;2024-02-16T11:32:25;14.70;99.90
40151;DHT22;25866;52.420;10.640;2024-02-16T11:34:51;14.70;99.90
40151;DHT22;25866;52.420;10.640;2024-02-16T11:37:17;14.60;99.90
40151;DHT22;25866;52.420;10.640;2024-02-16T11:39:43;14.60;99.90
40151;DHT22;25866;52.420;10.640;2024-02-16T11:42:12;14.60;99.90
40151;DHT22;25866;52.420;10.640;2024-02-16T11:44:49;14.50;99.90
40151;DHT22;25866;52.420;10.640;2024-02-16T11:47:22;14.40;99.90
40151;DHT22;25866;52.420;10.640;2024-02-16T11:50:05;14.30;99.90
40151;DHT22;25866;52.420;10.640;2024-02-16T11:52:32;14.20;99.90
40151;DHT22;25866;52.420;10.640;2024-02-16T11:54:58;14.20;99.90
40151;DHT22;25866;52.420;10.640;2024-02-16T11:57:29;14.20;99.90
40151;DHT22;25866;52.420;10.640;2024-02-16T11:59:55;14.10;99.90
40151;DHT22;25866;52.420;10.640;2024-02-16T12:02:24;14.10;99.90
40151;DHT22;25866;52.420;10.640;2024-02-16T12:04:58;14.10;99.90
40151;DHT22;25866;52.420;10.640;2024-02-16T12:07:26;14.10;99.90
40151;DHT22;25866;52.420;10.640;2024-02-16T12:09:58;14.10;99.90
40151;DHT22;25866;52.420;10.640;2024-02-16T12:12:25;14.10;99.90
40151;DHT22;25866;52.420;10.640;2024-02-16T12:14:53;14.00;99.90
40151;DHT22;25866;52.420;10.640;2024-02-16T12:17:19;14.10;99.90
40151;DHT22;25866;52.420;10.640;2024-02-16T12:19:45;14.10;99.90
40151;DHT22;25866;52.420;10.640;2024-02-16T12:22:16;14.10;99.90
40151;DHT22;25866;52.420;10.640;2024-02-16T12:24:43;14.10;99.90
40151;DHT22;25866;52.420;10.640;2024-02-16T12:27:09;14.10;99.90
40151;DHT22;25866;52.420;10.640;2024-02-16T12:29:35;14.10;99.90
40151;DHT22;25866;52.420;10.640;2024-02-16T12:32:01;14.10;99.90
40151;DHT22;25866;52.420;10.640;2024-02-16T12:34:26;14.00;99.90
40151;DHT22;25866;52.420;10.640;2024-02-16T12:36:53;14.10;99.90
40151;DHT22;25866;52.420;10.640;2024-02-16T12:39:19;14.10;99.90
40151;DHT22;25866;52.420;10.640;2024-02-16T12:41:46;14.00;99.90
40151;DHT22;25866;52.420;10.640;2024-02-16T12:44:12;14.00;99.90
40151;DHT22;25866;52.420;10.640;2024-02-16T12:46:37;14.00;99.90
40151;DHT22;25866;52.420;10.640;2024-02-16T12:49:04;14.00;99.90
40151;DHT22;25866;52.420;10.640;2024-02-16T12:51:30;14.00;99.90
40151;DHT22;25866;52.420;10.640;2024-02-16T12:53:56;14.00;99.90
40151;DHT22;25866;52.420;10.640;2024-02-16T12:56:22;14.00;99.90
40151;DHT22;25866;52.420;10.640;2024-02-16T12:58:48;14.00;99.90
40151;DHT22;25866;52.420;10.640;2024-02-16T13:01:13;14.00;99.90
40151;DHT22;25866;52.420;10.640;2024-02-16T13:03:39;13.90;99.90
40151;DHT22;25866;52.420;10.640;2024-02-16T13:06:05;14.00;99.90
40151;DHT22;25866;52.420;10.640;2024-02-16T13:08:31;14.00;99.90
40151;DHT22;25866;52.420;10.640;2024-02-16T13:10:58;14.00;99.90
40151;DHT22;25866;52.420;10.640;2024-02-16T13:13:24;14.00;99.90
40151;DHT22;25866;52.420;10.640;2024-02-16T13:15:50;14.00;99.90
40151;DHT22;25866;52.420;10.640;2024-02-16T13:18:17;14.00;99.90
40151;DHT22;25866;52.420;10.640;2024-02-16T13:20:46;14.00;99.90
40151;DHT22;25866;52.420;10.640;2024-02-16T13:23:12;14.10;99.90
40151;DHT22;25866;52.420;10.640;2024-02-16T13:25:38;14.10;99.90
40151;DHT22;25866;52.420;10.640;2024-02-16T13:28:04;14.20;99.90
40151;DHT22;25866;52.420;10.640;2024-02-16T13:30:30;14.30;99.90
40151;DHT22;25866;52.420;10.640;2024-02-16T13:32:58;14.40;99.90
40151;DHT22;25866;52.420;10.640;2024-02-16T13:35:24;14.40;99.90
40151;DHT22;25866;52.420;10.640;2024-02-16T13:37:51;14.30;99.90
40151;DHT22;25866;52.420;10.640;2024-02-16T13:40:17;14.30;99.90
40151;DHT22;25866;52.420;10.640;2024-02-16T13:42:44;14.30;99.90
40151;DHT22;25866;52.420;10.640;2024-02-16T13:45:10;14.30;99.90
40151;DHT22;25866;52.420;10.640;2024-02-16T13:47:37;14.30;99.90
40151;DHT22;25866;52.420;10.640;2024-02-16T13:50:06;14.20;99.90
40151;DHT22;25866;52.420;10.640;2024-02-16T13:52:32;14.20;99.90
40151;DHT22;25866;52.420;10.640;2024-02-16T13:54:58;14.20;99.90
40151;DHT22;25866;52.420;10.640;2024-02-16T13:57:24;14.20;99.90
40151;DHT22;25866;52.420;10.640;2024-02-16T13:59:50;14.10;99.90
40151;DHT22;25866;52.420;10.640;2024-02-16T14:02:15;14.20;99.90
40151;DHT22;25866;52.420;10.640;2024-02-16T14:04:41;14.20;99.90
40151;DHT22;25866;52.420;10.640;2024-02-16T14:07:07;14.20;99.90
40151;DHT22;25866;52.420;10.640;2024-02-16T14:09:33;14.20;99.90
40151;DHT22;25866;52.420;10.640;2024-02-16T14:11:59;14.20;99.90
40151;DHT22;25866;52.420;10.640;2024-02-16T14:14:25;14.30;99.90
40151;DHT22;25866;52.420;10.640;2024-02-16T14:16:52;14.40;99.90
40151;DHT22;25866;52.420;10.640;2024-02-16T14:19:17;14.40;99.90
40151;DHT22;25866;52.420;10.640;2024-02-16T14:21:43;14.40;99.90
40151;DHT22;25866;52.420;10.640;2024-02-16T14:24:09;14.40;99.90
40151;DHT22;25866;52.420;10.640;2024-02-16T14:26:36;14.30;99.90
40151;DHT22;25866;52.420;10.640;2024-02-16T14:29:04;14.30;99.90
40151;DHT22;25866;52.420;10.640;2024-02-16T14:31:30;14.20;99.90
40151;DHT22;25866;52.420;10.640;2024-02-16T14:33:55;14.10;99.90
40151;DHT22;25866;52.420;10.640;2024-02-16T14:36:21;14.00;99.90
40151;DHT22;25866;52.420;10.640;2024-02-16T14:38:47;13.90;99.90
40151;DHT22;25866;52.420;10.640;2024-02-16T14:41:13;13.90;99.90
40151;DHT22;25866;52.420;10.640;2024-02-16T14:43:42;13.80;99.90
40151;DHT22;25866;52.420;10.640;2024-02-16T14:46:08;13.80;99.90
40151;DHT22;25866;52.420;10.640;2024-02-16T14:48:35;13.80;99.90
40151;DHT22;25866;52.420;10.640;2024-02-16T14:51:01;13.70;99.90
40151;DHT22;25866;52.420;10.640;2024-02-16T14:53:28;13.70;99.90
40151;DHT22;25866;52.420;10.640;2024-02-16T14:56:01;13.70;99.90
40151;DHT22;25866;52.420;10.640;2024-02-16T14:58:29;13.60;99.90
40151;DHT22;25866;52.420;10.640;2024-02-16T15:00:54;13.60;99.90
40151;DHT22;25866;52.420;10.640;2024-02-16T15:03:22;13.50;99.90
40151;DHT22;25866;52.420;10.640;2024-02-16T15:05:48;13.50;99.90
40151;DHT22;25866;52.420;10.640;2024-02-16T15:08:14;13.50;99.90
40151;DHT22;25866;52.420;10.640;2024-02-16T15:10:40;13.50;99.90
40151;DHT22;25866;52.420;10.640;2024-02-16T15:13:08;13.50;99.90
40151;DHT22;25866;52.420;10.640;2024-02-16T15:15:35;13.50;99.90
40151;DHT22;25866;52.420;10.640;2024-02-16T15:18:01;13.40;99.90
40151;DHT22;25866;52.420;10.640;2024-02-16T15:20:27;13.50;99.90
40151;DHT22;25866;52.420;10.640;2024-02-16T15:22:53;13.40;99.90
40151;DHT22;25866;52.420;10.640;2024-02-16T15:25:20;13.40;99.90